Junius, South Dakota
Current Conditions -  °F | °C
As of 12:55 AM on Wednesday 26 Nov 2014 (Local Time) from KMDS Reporting Station
Light Snow Light Snow  
Wind Chill: -5°   Ceiling: 300
Heat Index: -2°   Visibility: 3mi
Dew Point: -2°   Wind: 6mph
Humidity: 100%   Direction: 120°ESE
Pressure: 29.8"   Gusts: NA
Location:  43.9866°N, 97.1364°W
Report Text: KMDS 260655Z AUTO 12005KT 3SM -SN OVC003 M02/M02 A2980 RMK AO2 P0002
Loading
Personal Weather Stations






























Interactive Weather Map New forecast layout! Learn more

10-Day Weather Forecast

Advertisements
Track Severe Weather on mobile